Martins, Brazil
Current Conditions -  °F | °C
As of 11:00 AM on Monday 24 Nov 2014 (Local Time) from SBJU Reporting Station
Few Clouds Few Clouds  
Wind Chill: 90°   Ceiling: Unl
Heat Index: 93°   Visibility: 6mi
Dew Point: 68°   Wind: 0mph
Humidity: 49%   Direction: NA
Pressure: 30.06"   Gusts: NA
Location:  6.09°S, 37.91°W
Report Text: SBJU 241400Z 00000KT 9999 FEW020 32/20 Q1018
Loading
Personal Weather Stations






























Interactive Weather Map New forecast layout! Learn more

10-Day Weather Forecast

Advertisements
Track Severe Weather on mobile